KBAM/BAM METAR and TAF weather

Enter ICAO airport designator
Station Type Date Time Source
KBAM METAR 2019/08/24 08:55 UTC NOAA

KBAM 240855Z AUTO 04003KT 10SM 12/M02 A3002 RMK AO1


Station Type Date Time Source
KBAM Decoded METAR 2019/08/24 08:55 UTC NOAA

Station name not available
Aug 24, 2019 - 04:55 AM EDT / 2019.08.24 0855 UTC
Wind: from the NE (040 degrees) at 3 MPH (3 KT):0
Visibility: 10 mile(s):0
Temperature: 53 F (12 C)
Dew Point: 28 F (-2 C)
Relative Humidity: 37%
Pressure (altimeter): 30.02 in. Hg (1016 hPa)
ob: KBAM 240855Z AUTO 04003KT 10SM 12/M02 A3002 RMK AO1
cycle: 9

Station Type Date Time Source
KBAM TAF 2019/08/24 06:42 UTC NOAA

TAF KBAM 240540Z 2406/2506 VRB06KT P6SM SCT300
FM241900 26012G20KT P6SM SCT300
FM250200 31008KT P6SM FEW300
AMD NOT SKED

Example: see airport list